Time;durP1;ratioP1;P1;durP2;ratioP2;P2;SDS_P1;SDS_P2;PMS_P1;PMS_P2;Temp;Humidity;BMP_temperature;BMP_pressure;BME280_temperature;BME280_humidity;BME280_pressure;Samples;Min_cycle;Max_cycle;Signal;HPM_P1;HPM_P2
2022/02/19 00:00:43;;;;;;;1.92;0.52;;;;;;;;;;5072055;28;20095;-78
2022/02/19 00:03:10;;;;;;;1.90;0.40;;;;;;;;;;5069654;28;20053;-77
2022/02/19 00:05:39;;;;;;;1.88;0.80;;;;;;;;;;5068867;28;20037;-77
2022/02/19 00:08:08;;;;;;;4.90;1.67;;;;;;;;;;5068810;28;20147;-79
2022/02/19 00:10:36;;;;;;;1.52;0.77;;;;;;;;;;5069393;28;20499;-77
2022/02/19 00:13:05;;;;;;;1.35;0.60;;;;;;;;;;5070561;28;20047;-78
2022/02/19 00:15:32;;;;;;;2.08;0.45;;;;;;;;;;5072853;28;20095;-78
2022/02/19 00:17:59;;;;;;;2.08;0.65;;;;;;;;;;5070117;28;20079;-77
2022/02/19 00:20:26;;;;;;;1.17;0.65;;;;;;;;;;5070547;28;20106;-77
2022/02/19 00:22:54;;;;;;;1.27;0.47;;;;;;;;;;5071211;28;20048;-79
2022/02/19 00:25:21;;;;;;;2.22;0.50;;;;;;;;;;5073532;28;20033;-79
2022/02/19 00:27:48;;;;;;;1.30;0.40;;;;;;;;;;5071536;28;20044;-78
2022/02/19 00:30:15;;;;;;;1.83;0.50;;;;;;;;;;5068507;28;20086;-78
2022/02/19 00:32:42;;;;;;;1.50;0.63;;;;;;;;;;5070258;28;20040;-79
2022/02/19 00:35:09;;;;;;;4.05;0.65;;;;;;;;;;5064427;28;20053;-79
2022/02/19 00:37:36;;;;;;;1.13;0.50;;;;;;;;;;5059172;28;20048;-79
2022/02/19 00:40:05;;;;;;;3.35;0.57;;;;;;;;;;5078444;28;20056;-78
2022/02/19 00:42:32;;;;;;;3.40;0.93;;;;;;;;;;5061587;28;20059;-78
2022/02/19 00:44:59;;;;;;;3.53;0.70;;;;;;;;;;5068054;28;20044;-78
2022/02/19 00:47:25;;;;;;;3.47;0.80;;;;;;;;;;5070359;28;20075;-78
2022/02/19 00:49:52;;;;;;;1.73;0.68;;;;;;;;;;5068808;28;20055;-78
2022/02/19 00:52:19;;;;;;;2.40;0.70;;;;;;;;;;5069092;28;20045;-77
2022/02/19 00:54:46;;;;;;;0.95;0.40;;;;;;;;;;5069007;28;20507;-78
2022/02/19 00:57:14;;;;;;;1.98;0.52;;;;;;;;;;5067738;28;20048;-78
2022/02/19 00:59:41;;;;;;;3.03;0.60;;;;;;;;;;5068169;28;20507;-79
2022/02/19 01:02:08;;;;;;;2.58;0.95;;;;;;;;;;5071531;28;20297;-78
2022/02/19 01:04:35;;;;;;;2.80;0.70;;;;;;;;;;5071952;28;20052;-78
2022/02/19 01:07:01;;;;;;;1.88;0.50;;;;;;;;;;5066305;28;20048;-78
2022/02/19 01:09:28;;;;;;;0.90;0.50;;;;;;;;;;5059369;28;20072;-78
2022/02/19 01:11:55;;;;;;;1.23;0.57;;;;;;;;;;5059851;28;20049;-77
2022/02/19 01:14:23;;;;;;;1.95;0.47;;;;;;;;;;5059765;28;20053;-77
2022/02/19 01:16:50;;;;;;;2.33;0.47;;;;;;;;;;5060049;28;20049;-76
2022/02/19 01:19:19;;;;;;;2.67;0.60;;;;;;;;;;5061697;28;20048;-79
2022/02/19 01:21:46;;;;;;;2.65;0.60;;;;;;;;;;5062000;28;20053;-78
2022/02/19 01:24:13;;;;;;;4.18;1.33;;;;;;;;;;5062918;28;20049;-79
2022/02/19 01:26:40;;;;;;;1.20;0.55;;;;;;;;;;5064412;28;20045;-79
2022/02/19 01:29:07;;;;;;;1.50;0.57;;;;;;;;;;5078796;28;20052;-78
2022/02/19 01:31:36;;;;;;;1.20;0.45;;;;;;;;;;5079512;28;20051;-79
2022/02/19 01:34:02;;;;;;;4.20;0.90;;;;;;;;;;5080244;28;20110;-78
2022/02/19 01:36:29;;;;;;;4.25;0.60;;;;;;;;;;5079739;28;20051;-79
2022/02/19 01:38:56;;;;;;;2.63;0.50;;;;;;;;;;5079388;28;20051;-79
2022/02/19 01:41:23;;;;;;;2.10;0.50;;;;;;;;;;5079346;28;20044;-77
2022/02/19 01:43:50;;;;;;;0.93;0.40;;;;;;;;;;5060648;28;20052;-77
2022/02/19 01:46:17;;;;;;;2.13;0.70;;;;;;;;;;5058784;28;20049;-78
2022/02/19 01:48:45;;;;;;;2.40;0.60;;;;;;;;;;5058195;28;20052;-77
2022/02/19 01:51:13;;;;;;;1.55;0.52;;;;;;;;;;5073314;22;20048;-79
2022/02/19 01:53:40;;;;;;;1.75;0.50;;;;;;;;;;5086287;28;20052;-80
2022/02/19 01:56:11;;;;;;;1.25;0.40;;;;;;;;;;5075691;28;20045;-78
2022/02/19 01:58:40;;;;;;;3.17;0.77;;;;;;;;;;5076409;28;20056;-79
2022/02/19 02:01:07;;;;;;;4.35;1.60;;;;;;;;;;5076391;28;20514;-79
2022/02/19 02:03:34;;;;;;;3.00;0.82;;;;;;;;;;5075852;28;20465;-77
2022/02/19 02:06:03;;;;;;;2.55;0.70;;;;;;;;;;5076790;28;20060;-79
2022/02/19 02:08:30;;;;;;;1.17;0.40;;;;;;;;;;5076693;28;20056;-79
2022/02/19 02:10:57;;;;;;;2.75;0.40;;;;;;;;;;5075261;28;20048;-78
2022/02/19 02:13:24;;;;;;;0.73;0.30;;;;;;;;;;5076001;28;20611;-78
2022/02/19 02:15:52;;;;;;;2.53;0.50;;;;;;;;;;5076263;28;20052;-78
2022/02/19 02:18:19;;;;;;;1.67;0.52;;;;;;;;;;5076073;28;20048;-78
2022/02/19 02:20:45;;;;;;;1.85;0.38;;;;;;;;;;5076354;28;20044;-78
2022/02/19 02:23:16;;;;;;;1.30;0.38;;;;;;;;;;5076597;28;20053;-79
2022/02/19 02:25:44;;;;;;;1.35;0.40;;;;;;;;;;5079238;28;20052;-79
2022/02/19 02:28:11;;;;;;;1.70;0.50;;;;;;;;;;5088232;28;20052;-78
2022/02/19 02:30:39;;;;;;;2.38;1.40;;;;;;;;;;5096081;28;20050;-78
2022/02/19 02:33:11;;;;;;;2.38;0.52;;;;;;;;;;5094094;28;20055;-77
2022/02/19 02:35:39;;;;;;;3.00;0.60;;;;;;;;;;5082240;28;20053;-79
2022/02/19 02:38:06;;;;;;;5.07;0.95;;;;;;;;;;5076239;28;20127;-78
2022/02/19 02:40:38;;;;;;;3.80;0.88;;;;;;;;;;5075266;28;20075;-77
2022/02/19 02:43:05;;;;;;;3.42;0.65;;;;;;;;;;5075861;28;20518;-79
2022/02/19 02:45:32;;;;;;;1.77;0.40;;;;;;;;;;5075733;28;20055;-79
2022/02/19 02:47:59;;;;;;;4.00;0.80;;;;;;;;;;5075390;28;20048;-78
2022/02/19 02:50:26;;;;;;;2.25;0.70;;;;;;;;;;5075905;28;20045;-79
2022/02/19 02:52:53;;;;;;;1.05;0.50;;;;;;;;;;5076316;28;20526;-79
2022/02/19 02:55:20;;;;;;;3.03;0.65;;;;;;;;;;5076375;28;20048;-78
2022/02/19 02:57:48;;;;;;;5.38;1.00;;;;;;;;;;5075662;28;20053;-79
2022/02/19 03:00:17;;;;;;;4.82;0.70;;;;;;;;;;5075954;28;20139;-80
2022/02/19 03:02:43;;;;;;;2.83;0.80;;;;;;;;;;5075566;28;20048;-78
2022/02/19 03:05:11;;;;;;;1.90;0.63;;;;;;;;;;5074618;28;20053;-78
2022/02/19 03:07:38;;;;;;;2.88;0.68;;;;;;;;;;5078149;28;20055;-78
2022/02/19 03:10:07;;;;;;;4.75;0.70;;;;;;;;;;5086033;28;20055;-78
2022/02/19 03:12:34;;;;;;;2.15;0.60;;;;;;;;;;5088268;28;20045;-80
2022/02/19 03:15:03;;;;;;;0.80;0.40;;;;;;;;;;5086263;28;20063;-79
2022/02/19 03:17:35;;;;;;;3.90;0.60;;;;;;;;;;5085161;28;20072;-79
2022/02/19 03:20:02;;;;;;;4.15;0.70;;;;;;;;;;5086665;28;20044;-79
2022/02/19 03:22:29;;;;;;;1.58;0.80;;;;;;;;;;5089271;28;20045;-78
2022/02/19 03:24:56;;;;;;;1.48;0.60;;;;;;;;;;5093249;28;20053;-78
2022/02/19 03:27:23;;;;;;;0.52;0.30;;;;;;;;;;5091534;28;20051;-79
2022/02/19 03:29:50;;;;;;;0.47;0.30;;;;;;;;;;5090350;28;20052;-77
2022/02/19 03:32:18;;;;;;;0.70;0.40;;;;;;;;;;5089484;28;20672;-77
2022/02/19 03:34:47;;;;;;;2.95;0.50;;;;;;;;;;5089463;28;20060;-78
2022/02/19 03:37:17;;;;;;;1.35;0.40;;;;;;;;;;5084749;28;20040;-77
2022/02/19 03:39:45;;;;;;;1.27;0.40;;;;;;;;;;5082574;28;20510;-77
2022/02/19 03:42:12;;;;;;;2.17;0.40;;;;;;;;;;5081838;28;20055;-77
2022/02/19 03:44:40;;;;;;;3.05;1.23;;;;;;;;;;5082021;28;20055;-77
2022/02/19 03:47:07;;;;;;;1.65;0.30;;;;;;;;;;5079250;28;20045;-77
2022/02/19 03:49:35;;;;;;;1.23;0.22;;;;;;;;;;5089731;28;20044;-77
2022/02/19 03:52:02;;;;;;;2.17;0.60;;;;;;;;;;5092150;28;20045;-77
2022/02/19 03:54:29;;;;;;;2.78;0.60;;;;;;;;;;5095984;28;20044;-78
2022/02/19 03:56:55;;;;;;;2.17;0.40;;;;;;;;;;5096726;28;20596;-77
2022/02/19 03:59:22;;;;;;;5.13;0.50;;;;;;;;;;5096372;28;20056;-77
2022/02/19 04:01:49;;;;;;;4.18;0.85;;;;;;;;;;5093311;28;20051;-78
2022/02/19 04:04:16;;;;;;;1.63;0.52;;;;;;;;;;5089949;28;20122;-78
2022/02/19 04:06:44;;;;;;;0.52;0.30;;;;;;;;;;5090288;28;20048;-78
2022/02/19 04:09:11;;;;;;;1.65;0.43;;;;;;;;;;5090556;28;20045;-78
2022/02/19 04:11:38;;;;;;;1.10;0.30;;;;;;;;;;5090907;28;20049;-78
2022/02/19 04:14:05;;;;;;;1.23;0.30;;;;;;;;;;5090249;28;20044;-78
2022/02/19 04:16:32;;;;;;;1.20;0.77;;;;;;;;;;5090629;28;20453;-78
2022/02/19 04:18:58;;;;;;;0.32;0.30;;;;;;;;;;5089772;28;20064;-78
2022/02/19 04:21:25;;;;;;;1.40;0.40;;;;;;;;;;5090255;28;20102;-78
2022/02/19 04:23:53;;;;;;;1.80;0.40;;;;;;;;;;5089534;28;20483;-77
2022/02/19 04:26:20;;;;;;;1.60;0.52;;;;;;;;;;5089619;28;20055;-78
2022/02/19 04:28:47;;;;;;;2.30;0.75;;;;;;;;;;5089678;28;20052;-78
2022/02/19 04:31:15;;;;;;;0.75;0.30;;;;;;;;;;5089061;28;20495;-78
2022/02/19 04:33:42;;;;;;;3.25;0.60;;;;;;;;;;5086364;28;20475;-78
2022/02/19 04:36:09;;;;;;;0.95;0.40;;;;;;;;;;5088066;28;20436;-78
2022/02/19 04:38:36;;;;;;;1.42;0.43;;;;;;;;;;5091767;28;20158;-78
2022/02/19 04:41:04;;;;;;;1.20;0.60;;;;;;;;;;5093841;28;20048;-77
2022/02/19 04:43:31;;;;;;;1.95;0.60;;;;;;;;;;5084395;28;20052;-77
2022/02/19 04:45:58;;;;;;;1.25;0.55;;;;;;;;;;5081756;28;20483;-77
2022/02/19 04:48:25;;;;;;;1.38;0.50;;;;;;;;;;5080750;28;20079;-77
2022/02/19 04:50:52;;;;;;;3.00;0.75;;;;;;;;;;5085561;28;20048;-78
2022/02/19 04:53:18;;;;;;;1.80;0.60;;;;;;;;;;5088317;28;20044;-77
2022/02/19 04:55:45;;;;;;;4.70;1.00;;;;;;;;;;5088055;28;20048;-78
2022/02/19 04:58:13;;;;;;;2.95;0.70;;;;;;;;;;5087423;28;20048;-78
2022/02/19 05:00:40;;;;;;;2.47;0.90;;;;;;;;;;5086962;28;20071;-78
2022/02/19 05:03:07;;;;;;;3.83;0.85;;;;;;;;;;5087359;28;20049;-77
2022/02/19 05:05:34;;;;;;;2.13;0.60;;;;;;;;;;5088063;28;20374;-78
2022/02/19 05:08:01;;;;;;;3.63;1.02;;;;;;;;;;5087911;28;20048;-78
2022/02/19 05:10:28;;;;;;;4.72;0.85;;;;;;;;;;5087297;28;20048;-78
2022/02/19 05:12:55;;;;;;;3.25;0.77;;;;;;;;;;5086943;28;20075;-78
2022/02/19 05:15:23;;;;;;;4.07;0.88;;;;;;;;;;5087019;28;20056;-78
2022/02/19 05:17:52;;;;;;;2.25;0.70;;;;;;;;;;5086668;28;20048;-78
2022/02/19 05:20:20;;;;;;;2.20;0.70;;;;;;;;;;5086367;28;20040;-77
2022/02/19 05:22:47;;;;;;;4.90;1.10;;;;;;;;;;5086727;28;20044;-78
2022/02/19 05:25:14;;;;;;;4.13;0.80;;;;;;;;;;5086873;28;20055;-77
2022/02/19 05:27:41;;;;;;;2.42;0.57;;;;;;;;;;5085347;28;20075;-78
2022/02/19 05:30:09;;;;;;;3.22;0.68;;;;;;;;;;5086104;28;20044;-78
2022/02/19 05:32:38;;;;;;;4.20;0.70;;;;;;;;;;5085154;28;20060;-78
2022/02/19 05:35:05;;;;;;;2.67;0.85;;;;;;;;;;5074725;28;20052;-77
2022/02/19 05:37:34;;;;;;;3.65;1.08;;;;;;;;;;5074482;28;20045;-77
2022/02/19 05:40:02;;;;;;;3.38;0.73;;;;;;;;;;5076980;28;20063;-78
2022/02/19 05:42:28;;;;;;;4.30;0.77;;;;;;;;;;5078855;28;20052;-78
2022/02/19 05:44:55;;;;;;;3.10;0.70;;;;;;;;;;5079491;28;20055;-77
2022/02/19 05:47:22;;;;;;;4.50;0.95;;;;;;;;;;5074293;28;20448;-80
2022/02/19 05:49:51;;;;;;;1.58;0.77;;;;;;;;;;5074773;28;20048;-78
2022/02/19 05:52:18;;;;;;;5.05;1.00;;;;;;;;;;5075296;28;20052;-78
2022/02/19 05:54:45;;;;;;;3.10;0.70;;;;;;;;;;5091130;28;20142;-77
2022/02/19 05:57:13;;;;;;;3.15;0.80;;;;;;;;;;5096990;28;20062;-79
2022/02/19 05:59:39;;;;;;;5.75;0.80;;;;;;;;;;5097562;28;20049;-78
2022/02/19 06:02:06;;;;;;;4.43;1.00;;;;;;;;;;5096058;28;20049;-78
2022/02/19 06:04:33;;;;;;;3.08;0.90;;;;;;;;;;5092907;28;20055;-80
2022/02/19 06:07:01;;;;;;;3.10;1.00;;;;;;;;;;5079136;28;20052;-79
2022/02/19 06:09:28;;;;;;;8.25;1.42;;;;;;;;;;5075424;28;20106;-79
2022/02/19 06:11:55;;;;;;;7.50;1.00;;;;;;;;;;5074726;28;20052;-79
2022/02/19 06:14:22;;;;;;;7.07;1.02;;;;;;;;;;5074009;28;20048;-79
2022/02/19 06:16:49;;;;;;;6.65;1.30;;;;;;;;;;5080679;28;20041;-79
2022/02/19 06:19:16;;;;;;;5.90;1.67;;;;;;;;;;5084163;28;20066;-79
2022/02/19 06:21:43;;;;;;;6.95;1.08;;;;;;;;;;5085066;28;20049;-79
2022/02/19 06:24:11;;;;;;;3.50;1.30;;;;;;;;;;5078664;28;20135;-80
2022/02/19 06:26:38;;;;;;;6.78;1.30;;;;;;;;;;5074858;28;20063;-80
2022/02/19 06:29:05;;;;;;;2.95;0.90;;;;;;;;;;5074976;28;20079;-79
2022/02/19 06:31:32;;;;;;;3.08;1.20;;;;;;;;;;5073291;28;20396;-79
2022/02/19 06:33:59;;;;;;;5.30;1.42;;;;;;;;;;5073275;28;20045;-79
2022/02/19 06:36:26;;;;;;;5.68;1.08;;;;;;;;;;5073312;28;20075;-79
2022/02/19 06:38:52;;;;;;;2.38;0.75;;;;;;;;;;5073337;28;20554;-79
2022/02/19 06:41:21;;;;;;;4.22;1.00;;;;;;;;;;5074056;28;20064;-78
2022/02/19 06:43:47;;;;;;;6.00;1.10;;;;;;;;;;5073224;28;20052;-78
2022/02/19 06:46:14;;;;;;;5.53;1.10;;;;;;;;;;5073048;28;20052;-79
2022/02/19 06:48:41;;;;;;;10.73;1.77;;;;;;;;;;5072969;28;20114;-79
2022/02/19 06:51:08;;;;;;;9.30;1.27;;;;;;;;;;5072958;28;20048;-79
2022/02/19 06:53:36;;;;;;;3.80;1.02;;;;;;;;;;5073206;28;20391;-79
2022/02/19 06:56:04;;;;;;;6.57;1.25;;;;;;;;;;5072025;28;20110;-78
2022/02/19 06:58:32;;;;;;;3.58;1.00;;;;;;;;;;5071774;28;20052;-79
2022/02/19 07:00:59;;;;;;;3.40;0.88;;;;;;;;;;5072992;28;20056;-78
2022/02/19 07:03:26;;;;;;;8.80;1.90;;;;;;;;;;5073103;28;20496;-77
2022/02/19 07:05:54;;;;;;;7.75;1.20;;;;;;;;;;5073437;28;20054;-79
2022/02/19 07:08:21;;;;;;;5.97;1.35;;;;;;;;;;5072555;28;20467;-77
2022/02/19 07:10:49;;;;;;;7.75;1.60;;;;;;;;;;5073140;28;20048;-78
2022/02/19 07:13:16;;;;;;;5.18;1.25;;;;;;;;;;5073101;28;20399;-78
2022/02/19 07:15:44;;;;;;;8.13;1.30;;;;;;;;;;5073858;28;20045;-78
2022/02/19 07:18:11;;;;;;;4.50;1.38;;;;;;;;;;5073249;28;20048;-78
2022/02/19 07:20:38;;;;;;;4.72;1.20;;;;;;;;;;5073609;28;20331;-78
2022/02/19 07:23:06;;;;;;;9.20;1.13;;;;;;;;;;5073129;28;20127;-78
2022/02/19 07:25:33;;;;;;;3.83;1.23;;;;;;;;;;5070538;28;20102;-78
2022/02/19 07:28:00;;;;;;;6.80;1.83;;;;;;;;;;5072664;28;20041;-79
2022/02/19 07:30:28;;;;;;;6.28;1.00;;;;;;;;;;5072936;28;20446;-78
2022/02/19 07:32:57;;;;;;;4.90;1.50;;;;;;;;;;5070190;28;20048;-78
2022/02/19 07:35:24;;;;;;;6.10;1.70;;;;;;;;;;5072262;28;20560;-78
2022/02/19 07:37:51;;;;;;;5.22;1.23;;;;;;;;;;5072867;28;20578;-79
2022/02/19 07:40:19;;;;;;;5.47;1.67;;;;;;;;;;5073521;28;20190;-79
2022/02/19 07:42:45;;;;;;;4.05;0.90;;;;;;;;;;5073179;28;20051;-79
2022/02/19 07:45:12;;;;;;;5.10;1.08;;;;;;;;;;5083341;28;20142;-79
2022/02/19 07:47:39;;;;;;;6.28;1.30;;;;;;;;;;5085143;28;20048;-77
2022/02/19 07:58:26;;;;;;;5.93;1.13;;;;;;;;;;5082207;28;20117;-77
2022/02/19 08:00:54;;;;;;;7.35;2.17;;;;;;;;;;5074486;28;20060;-76
2022/02/19 08:03:24;;;;;;;4.93;1.30;;;;;;;;;;5073121;28;20132;-77
2022/02/19 08:05:53;;;;;;;4.60;1.10;;;;;;;;;;5066929;28;20483;-77
2022/02/19 08:08:21;;;;;;;6.03;1.00;;;;;;;;;;5074132;28;20049;-77
2022/02/19 08:10:48;;;;;;;2.83;0.70;;;;;;;;;;5076967;28;20053;-80
2022/02/19 08:13:16;;;;;;;5.03;1.13;;;;;;;;;;5079501;28;20048;-78
2022/02/19 08:15:45;;;;;;;3.03;0.82;;;;;;;;;;5076994;28;20055;-77
2022/02/19 08:18:13;;;;;;;4.50;0.90;;;;;;;;;;5077724;28;20099;-79
2022/02/19 08:20:42;;;;;;;5.88;1.23;;;;;;;;;;5075949;28;20048;-78
2022/02/19 08:23:11;;;;;;;6.90;1.73;;;;;;;;;;5076901;28;20045;-77
2022/02/19 08:25:38;;;;;;;7.15;1.67;;;;;;;;;;5075998;28;20074;-76
2022/02/19 08:28:06;;;;;;;5.63;0.88;;;;;;;;;;5075230;28;20071;-78
2022/02/19 08:30:34;;;;;;;3.72;1.00;;;;;;;;;;5075151;28;20048;-77
2022/02/19 08:33:01;;;;;;;5.60;1.23;;;;;;;;;;5075223;28;20080;-78
2022/02/19 08:35:28;;;;;;;10.30;2.33;;;;;;;;;;5075904;28;20044;-77
2022/02/19 08:37:54;;;;;;;3.97;1.08;;;;;;;;;;5074558;28;20486;-77
2022/02/19 08:40:23;;;;;;;7.43;1.52;;;;;;;;;;5074606;28;20476;-77
2022/02/19 08:42:50;;;;;;;3.70;1.52;;;;;;;;;;5074689;28;20105;-76
2022/02/19 08:45:18;;;;;;;3.88;0.85;;;;;;;;;;5074623;28;20495;-77
2022/02/19 08:47:48;;;;;;;4.05;1.10;;;;;;;;;;5074701;28;20048;-77
2022/02/19 08:50:16;;;;;;;5.95;1.30;;;;;;;;;;5075484;28;20055;-77
2022/02/19 08:52:44;;;;;;;6.97;1.30;;;;;;;;;;5075243;28;20045;-77
2022/02/19 08:55:13;;;;;;;7.25;1.50;;;;;;;;;;5080197;28;20044;-77
2022/02/19 08:57:41;;;;;;;4.20;1.25;;;;;;;;;;5075649;28;20053;-78
2022/02/19 09:00:12;;;;;;;7.22;1.27;;;;;;;;;;5076770;28;20060;-77
2022/02/19 09:02:39;;;;;;;;;;;;;;;;;;5077149;28;20095;-77
2022/02/19 09:05:07;;;;;;;6.70;1.50;;;;;;;;;;5077381;28;19921;-77
2022/02/19 09:07:34;;;;;;;6.30;1.10;;;;;;;;;;5078809;28;20044;-77
2022/02/19 09:10:01;;;;;;;5.68;1.20;;;;;;;;;;5079444;28;20102;-77
2022/02/19 09:12:28;;;;;;;5.00;1.88;;;;;;;;;;5074990;28;20048;-78
2022/02/19 09:14:57;;;;;;;7.03;1.00;;;;;;;;;;5075005;28;20415;-78
2022/02/19 09:17:24;;;;;;;8.43;1.38;;;;;;;;;;5085424;28;20054;-76
2022/02/19 09:19:51;;;;;;;5.80;1.17;;;;;;;;;;5088281;28;20105;-77
2022/02/19 09:22:18;;;;;;;7.15;1.38;;;;;;;;;;5097188;28;20193;-79
2022/02/19 09:24:45;;;;;;;5.00;1.23;;;;;;;;;;5098261;28;20070;-77
2022/02/19 09:27:12;;;;;;;4.10;1.00;;;;;;;;;;5096608;28;20036;-79
2022/02/19 09:29:38;;;;;;;5.47;1.35;;;;;;;;;;5086911;28;20423;-81
2022/02/19 09:32:08;;;;;;;6.43;1.27;;;;;;;;;;5076990;28;20094;-80
2022/02/19 09:34:35;;;;;;;6.38;0.93;;;;;;;;;;5076374;28;20055;-80
2022/02/19 09:37:02;;;;;;;5.53;0.85;;;;;;;;;;5076886;28;20453;-79
2022/02/19 09:39:29;;;;;;;5.00;1.40;;;;;;;;;;5077400;28;20063;-80
2022/02/19 09:42:02;;;;;;;7.45;1.25;;;;;;;;;;5077461;28;20052;-79
2022/02/19 09:44:29;;;;;;;7.05;1.25;;;;;;;;;;5077558;28;20127;-79
2022/02/19 09:46:57;;;;;;;4.15;1.00;;;;;;;;;;5076577;28;20510;-79
2022/02/19 09:49:25;;;;;;;2.22;0.70;;;;;;;;;;5078028;28;20449;-79
2022/02/19 09:51:55;;;;;;;4.78;1.27;;;;;;;;;;5080730;28;20106;-78
2022/02/19 09:54:22;;;;;;;6.77;1.40;;;;;;;;;;5082569;28;20072;-79
2022/02/19 09:56:50;;;;;;;5.10;1.50;;;;;;;;;;5082500;28;20396;-79
2022/02/19 09:59:17;;;;;;;4.45;1.10;;;;;;;;;;5081604;28;20478;-77
2022/02/19 10:01:45;;;;;;;4.78;1.48;;;;;;;;;;5081233;28;20143;-79
2022/02/19 10:04:12;;;;;;;9.95;2.15;;;;;;;;;;5080957;28;20101;-78
2022/02/19 10:06:40;;;;;;;7.00;1.10;;;;;;;;;;5081377;28;20045;-79
2022/02/19 10:09:12;;;;;;;7.35;1.45;;;;;;;;;;5081469;28;20109;-78
2022/02/19 10:11:40;;;;;;;6.45;1.67;;;;;;;;;;5080933;28;20495;-78
2022/02/19 10:14:23;;;;;;;6.95;1.30;;;;;;;;;;5080303;28;20470;-78
2022/02/19 10:17:11;;;;;;;5.55;0.95;;;;;;;;;;5079080;28;20051;-79
2022/02/19 10:19:50;;;;;;;6.00;1.23;;;;;;;;;;5079424;28;20049;-78
2022/02/19 10:22:19;;;;;;;4.88;1.10;;;;;;;;;;5080326;28;20457;-79
2022/02/19 10:24:47;;;;;;;7.90;1.58;;;;;;;;;;5079094;28;20105;-79
2022/02/19 10:27:15;;;;;;;5.93;1.42;;;;;;;;;;5079460;28;20075;-78
2022/02/19 10:29:54;;;;;;;7.00;1.55;;;;;;;;;;5079978;28;20083;-78
2022/02/19 10:32:21;;;;;;;4.07;1.08;;;;;;;;;;5080045;28;20080;-79
2022/02/19 10:34:56;;;;;;;4.55;1.23;;;;;;;;;;5078562;28;20523;-77
2022/02/19 10:37:29;;;;;;;9.73;1.88;;;;;;;;;;5078365;28;20048;-78
2022/02/19 10:39:57;;;;;;;6.35;1.58;;;;;;;;;;5079151;28;20060;-78
2022/02/19 10:42:35;;;;;;;7.55;1.30;;;;;;;;;;5078926;28;20045;-79
2022/02/19 10:45:10;;;;;;;5.50;1.48;;;;;;;;;;5078925;28;20040;-78
2022/02/19 10:47:37;;;;;;;7.38;1.40;;;;;;;;;;5080280;28;20044;-78
2022/02/19 10:50:12;;;;;;;6.07;1.30;;;;;;;;;;5086649;28;20056;-77
2022/02/19 10:52:42;;;;;;;6.07;1.38;;;;;;;;;;5084830;28;20767;-80
2022/02/19 10:55:10;;;;;;;;;;;;;;;;;;5077598;28;20079;-79
2022/02/19 10:57:38;;;;;;;7.65;1.60;;;;;;;;;;5077948;28;19921;-79
2022/02/19 11:00:16;;;;;;;9.43;1.40;;;;;;;;;;5078051;28;20127;-79
2022/02/19 11:02:43;;;;;;;6.53;1.40;;;;;;;;;;5078073;28;20079;-80
2022/02/19 11:05:11;;;;;;;7.70;1.30;;;;;;;;;;5079204;28;20481;-78
2022/02/19 11:07:41;;;;;;;6.05;1.45;;;;;;;;;;5077532;28;20098;-79
2022/02/19 11:10:09;;;;;;;4.82;1.33;;;;;;;;;;5077601;28;20044;-78
2022/02/19 11:12:37;;;;;;;8.73;1.70;;;;;;;;;;5076885;28;20056;-78
2022/02/19 11:15:06;;;;;;;7.68;2.03;;;;;;;;;;5076985;28;20078;-78
2022/02/19 11:17:34;;;;;;;6.88;1.25;;;;;;;;;;5077070;28;20059;-78
2022/02/19 11:20:02;;;;;;;10.45;2.03;;;;;;;;;;5077805;28;20048;-78
2022/02/19 11:22:30;;;;;;;4.50;1.10;;;;;;;;;;5076975;28;20110;-78
2022/02/19 11:24:59;;;;;;;4.65;1.02;;;;;;;;;;5078299;28;20048;-78
2022/02/19 11:27:27;;;;;;;10.50;1.90;;;;;;;;;;5079733;28;20110;-77
2022/02/19 11:29:57;;;;;;;10.77;2.55;;;;;;;;;;5075801;28;20093;-78
2022/02/19 11:32:25;;;;;;;6.90;1.60;;;;;;;;;;5074430;28;20511;-79
2022/02/19 11:34:52;;;;;;;7.13;1.25;;;;;;;;;;5074753;28;20048;-79
2022/02/19 11:37:21;;;;;;;9.98;2.80;;;;;;;;;;5074001;28;20492;-79
2022/02/19 11:40:08;;;;;;;5.63;2.30;;;;;;;;;;5074611;28;20074;-78
2022/02/19 11:42:38;;;;;;;8.05;1.38;;;;;;;;;;5075922;28;20048;-78
2022/02/19 11:45:19;;;;;;;13.02;2.67;;;;;;;;;;5080558;28;20044;-78
2022/02/19 11:47:46;;;;;;;7.88;1.77;;;;;;;;;;5084019;28;20514;-79
2022/02/19 11:50:18;;;;;;;12.05;2.45;;;;;;;;;;5082546;28;20114;-79
2022/02/19 11:52:45;;;;;;;6.82;1.70;;;;;;;;;;5084745;28;20543;-77
2022/02/19 11:55:31;;;;;;;8.65;1.63;;;;;;;;;;5076536;28;20558;-77
2022/02/19 11:58:01;;;;;;;8.43;1.70;;;;;;;;;;5076905;28;20079;-77
2022/02/19 12:00:45;;;;;;;7.53;1.80;;;;;;;;;;5076524;28;20450;-77
2022/02/19 12:03:21;;;;;;;9.23;1.88;;;;;;;;;;5075535;28;20044;-77
2022/02/19 12:06:07;;;;;;;5.97;1.48;;;;;;;;;;5076249;28;20044;-77
2022/02/19 12:09:08;;;;;;;9.20;2.38;;;;;;;;;;5075214;28;20048;-77
2022/02/19 12:11:50;;;;;;;;;;;;;;;;;;5075935;28;20430;-78
2022/02/19 12:14:57;;;;;;;6.88;1.45;;;;;;;;;;5062084;28;19928;-77
2022/02/19 12:17:43;;;;;;;9.52;2.05;;;;;;;;;;5082508;28;20139;-76
2022/02/19 12:20:23;;;;;;;7.28;1.40;;;;;;;;;;5093063;28;20056;-76
2022/02/19 12:22:53;;;;;;;5.85;1.75;;;;;;;;;;5093052;28;20056;-77
2022/02/19 12:25:20;;;;;;;8.73;2.20;;;;;;;;;;5085786;28;20076;-77
2022/02/19 12:28:17;;;;;;;5.45;1.52;;;;;;;;;;5075604;28;20059;-76
2022/02/19 12:30:46;;;;;;;6.80;1.42;;;;;;;;;;5074973;28;20147;-77
2022/02/19 12:33:13;;;;;;;6.28;1.48;;;;;;;;;;5075064;28;20044;-78
2022/02/19 12:35:43;;;;;;;6.05;1.50;;;;;;;;;;5075768;28;20056;-76
2022/02/19 12:38:13;;;;;;;9.57;2.27;;;;;;;;;;5075570;28;20083;-76
2022/02/19 12:40:40;;;;;;;8.02;1.52;;;;;;;;;;5076641;28;20760;-77
2022/02/19 12:43:12;;;;;;;7.32;1.73;;;;;;;;;;5075030;28;20055;-76
2022/02/19 12:45:39;;;;;;;6.60;1.70;;;;;;;;;;5075092;28;20098;-77
2022/02/19 12:48:08;;;;;;;6.65;1.20;;;;;;;;;;5074827;28;20446;-77
2022/02/19 12:50:35;;;;;;;9.02;1.77;;;;;;;;;;5074788;28;20049;-78
2022/02/19 12:53:03;;;;;;;5.32;1.20;;;;;;;;;;5074944;28;20048;-78
2022/02/19 12:55:29;;;;;;;5.82;1.42;;;;;;;;;;5075084;28;20055;-77
2022/02/19 12:58:01;;;;;;;8.70;1.75;;;;;;;;;;5074920;28;20487;-77
2022/02/19 13:00:27;;;;;;;4.30;1.27;;;;;;;;;;5074734;28;20049;-77
2022/02/19 13:03:00;;;;;;;8.70;1.50;;;;;;;;;;5074545;28;20508;-77
2022/02/19 13:05:28;;;;;;;7.05;1.75;;;;;;;;;;5077267;28;20450;-80
2022/02/19 13:07:55;;;;;;;6.35;1.23;;;;;;;;;;5076830;28;20083;-77
2022/02/19 13:10:24;;;;;;;8.00;2.15;;;;;;;;;;5071557;28;20118;-81
2022/02/19 13:12:50;;;;;;;6.72;1.60;;;;;;;;;;5073503;28;20052;-79
2022/02/19 13:15:17;;;;;;;5.47;1.60;;;;;;;;;;5073474;28;20075;-78
2022/02/19 13:17:46;;;;;;;3.65;1.10;;;;;;;;;;5074256;28;20049;-78
2022/02/19 13:20:16;;;;;;;9.15;1.88;;;;;;;;;;5073707;28;20051;-78
2022/02/19 13:22:48;;;;;;;5.47;1.20;;;;;;;;;;5075894;28;20055;-79
2022/02/19 13:25:16;;;;;;;6.32;1.70;;;;;;;;;;5074450;28;20044;-80
2022/02/19 13:27:44;;;;;;;9.07;1.40;;;;;;;;;;5072698;28;20040;-76
2022/02/19 13:30:15;;;;;;;8.57;1.88;;;;;;;;;;5072356;28;20067;-78
2022/02/19 13:32:43;;;;;;;5.05;2.08;;;;;;;;;;5072721;28;20048;-78
2022/02/19 13:35:22;;;;;;;8.05;1.38;;;;;;;;;;5072402;28;20149;-78
2022/02/19 13:37:51;;;;;;;5.80;1.60;;;;;;;;;;5071905;28;20048;-77
2022/02/19 13:40:20;;;;;;;7.05;1.70;;;;;;;;;;5071476;28;20049;-77
2022/02/19 13:42:49;;;;;;;7.25;1.60;;;;;;;;;;5071568;28;20044;-76
2022/02/19 13:45:29;;;;;;;8.27;1.83;;;;;;;;;;5071843;28;20079;-78
2022/02/19 13:47:58;;;;;;;6.33;2.60;;;;;;;;;;5072342;28;20044;-78
2022/02/19 13:50:29;;;;;;;8.50;2.42;;;;;;;;;;5072002;28;20074;-79
2022/02/19 13:53:05;;;;;;;8.25;2.38;;;;;;;;;;5074251;28;20424;-78
2022/02/19 13:55:33;;;;;;;8.65;1.75;;;;;;;;;;5076272;28;20060;-76
2022/02/19 13:58:09;;;;;;;7.20;1.73;;;;;;;;;;5075447;28;20044;-77
2022/02/19 14:00:36;;;;;;;6.90;2.58;;;;;;;;;;5072540;28;20109;-78
2022/02/19 14:03:03;;;;;;;9.50;2.20;;;;;;;;;;5071758;28;20048;-77
2022/02/19 14:05:42;;;;;;;8.40;1.55;;;;;;;;;;5071566;28;20106;-77
2022/02/19 14:08:12;;;;;;;7.10;1.60;;;;;;;;;;5071677;28;20055;-77
2022/02/19 14:10:57;;;;;;;11.63;1.88;;;;;;;;;;5071050;28;20070;-77
2022/02/19 14:13:25;;;;;;;6.57;1.95;;;;;;;;;;5071766;28;20418;-77
2022/02/19 14:15:52;;;;;;;8.32;1.70;;;;;;;;;;5071614;28;20045;-79
2022/02/19 14:18:20;;;;;;;11.23;1.90;;;;;;;;;;5072614;28;20048;-76
2022/02/19 14:20:48;;;;;;;10.98;1.98;;;;;;;;;;5089808;28;20125;-77
2022/02/19 14:23:23;;;;;;;10.55;3.17;;;;;;;;;;5087662;28;20071;-77
2022/02/19 14:25:54;;;;;;;7.63;1.70;;;;;;;;;;5089675;28;20040;-76
2022/02/19 14:28:23;;;;;;;12.15;2.42;;;;;;;;;;5090321;28;20041;-77
2022/02/19 14:30:50;;;;;;;9.52;2.55;;;;;;;;;;5076071;28;20062;-79
2022/02/19 14:33:18;;;;;;;4.25;1.58;;;;;;;;;;5086760;28;20056;-77
2022/02/19 14:35:46;;;;;;;10.80;1.40;;;;;;;;;;5095750;28;20028;-78
2022/02/19 14:38:25;;;;;;;11.10;2.10;;;;;;;;;;5070751;28;20044;-77
2022/02/19 14:40:58;;;;;;;6.97;2.67;;;;;;;;;;5071226;28;20056;-77
2022/02/19 14:43:26;;;;;;;8.35;1.80;;;;;;;;;;5071732;28;20052;-77
2022/02/19 14:45:54;;;;;;;7.80;1.98;;;;;;;;;;5071594;28;20052;-77
2022/02/19 14:48:23;;;;;;;7.45;1.65;;;;;;;;;;5070567;28;20654;-77
2022/02/19 14:50:51;;;;;;;9.05;2.08;;;;;;;;;;5070274;28;20045;-77
2022/02/19 14:53:19;;;;;;;12.43;2.83;;;;;;;;;;5070788;28;20049;-78
2022/02/19 14:55:49;;;;;;;7.35;2.10;;;;;;;;;;5070916;28;20462;-78
2022/02/19 14:58:16;;;;;;;11.15;2.53;;;;;;;;;;5070209;28;20415;-76
2022/02/19 15:00:43;;;;;;;9.35;2.55;;;;;;;;;;5070461;28;20045;-77